sensor_id;sensor_type;location;lat;lon;timestamp;pressure;altitude;pressure_sealevel;temperature;humidity
75420;BME280;63998;52.488;13.428;2023-04-01T00:00:29;99189.91;;;9.43;84.88
75420;BME280;63998;52.488;13.428;2023-04-01T00:02:54;99188.31;;;9.36;84.85
75420;BME280;63998;52.488;13.428;2023-04-01T00:05:22;99190.03;;;9.37;84.36
75420;BME280;63998;52.488;13.428;2023-04-01T00:07:49;99195.44;;;9.25;84.43
75420;BME280;63998;52.488;13.428;2023-04-01T00:10:15;99187.53;;;9.31;85.24
75420;BME280;63998;52.488;13.428;2023-04-01T00:12:41;99192.78;;;9.28;85.24
75420;BME280;63998;52.488;13.428;2023-04-01T00:15:09;99187.44;;;9.37;85.01
75420;BME280;63998;52.488;13.428;2023-04-01T00:17:37;99192.69;;;9.34;84.99
75420;BME280;63998;52.488;13.428;2023-04-01T00:20:04;99184.03;;;9.35;84.69
75420;BME280;63998;52.488;13.428;2023-04-01T00:22:29;99191.69;;;9.40;84.41
75420;BME280;63998;52.488;13.428;2023-04-01T00:24:57;99192.66;;;9.35;84.25
75420;BME280;63998;52.488;13.428;2023-04-01T00:27:22;99190.13;;;9.31;84.66
75420;BME280;63998;52.488;13.428;2023-04-01T00:29:47;99186.66;;;9.32;85.01
75420;BME280;63998;52.488;13.428;2023-04-01T00:32:16;99190.97;;;9.33;84.82
75420;BME280;63998;52.488;13.428;2023-04-01T00:34:41;99183.22;;;9.31;84.43
75420;BME280;63998;52.488;13.428;2023-04-01T00:37:07;99184.88;;;9.35;84.95
75420;BME280;63998;52.488;13.428;2023-04-01T00:39:34;99187.38;;;9.40;84.55
75420;BME280;63998;52.488;13.428;2023-04-01T00:42:02;99187.28;;;9.46;84.44
75420;BME280;63998;52.488;13.428;2023-04-01T00:44:32;99185.69;;;9.39;84.42
75420;BME280;63998;52.488;13.428;2023-04-01T00:46:59;99184.03;;;9.35;84.57
75420;BME280;63998;52.488;13.428;2023-04-01T00:49:27;99184.06;;;9.32;84.44
75420;BME280;63998;52.488;13.428;2023-04-01T00:51:55;99192.00;;;9.24;84.72
75420;BME280;63998;52.488;13.428;2023-04-01T00:54:24;99190.31;;;9.20;84.79
75420;BME280;63998;52.488;13.428;2023-04-01T00:56:55;99193.81;;;9.18;85.25
75420;BME280;63998;52.488;13.428;2023-04-01T00:59:29;99186.03;;;9.18;85.57
75420;BME280;63998;52.488;13.428;2023-04-01T01:01:55;99192.06;;;9.20;85.22
75420;BME280;63998;52.488;13.428;2023-04-01T01:04:25;99190.38;;;9.16;85.84
75420;BME280;63998;52.488;13.428;2023-04-01T01:06:54;99192.88;;;9.22;85.61
75420;BME280;63998;52.488;13.428;2023-04-01T01:09:47;99187.75;;;9.19;86.02
75420;BME280;63998;52.488;13.428;2023-04-01T01:12:19;99185.97;;;9.22;86.09
75420;BME280;63998;52.488;13.428;2023-04-01T01:20:02;99191.66;;;9.43;85.90
75420;BME280;63998;52.488;13.428;2023-04-01T01:31:23;99199.66;;;9.29;86.15
75420;BME280;63998;52.488;13.428;2023-04-01T01:36:48;99200.44;;;9.34;86.14
75420;BME280;63998;52.488;13.428;2023-04-01T01:39:16;99197.94;;;9.28;86.25
75420;BME280;63998;52.488;13.428;2023-04-01T01:41:46;99195.34;;;9.28;86.58
75420;BME280;63998;52.488;13.428;2023-04-01T01:44:15;99199.56;;;9.35;86.44
75420;BME280;63998;52.488;13.428;2023-04-01T01:46:42;99198.66;;;9.39;86.33
75420;BME280;63998;52.488;13.428;2023-04-01T01:49:12;99196.06;;;9.39;86.67
75420;BME280;63998;52.488;13.428;2023-04-01T01:51:39;99194.34;;;9.38;86.57
75420;BME280;63998;52.488;13.428;2023-04-01T01:54:07;99202.13;;;9.38;86.67
75420;BME280;63998;52.488;13.428;2023-04-01T01:56:36;99195.03;;;9.46;86.17
75420;BME280;63998;52.488;13.428;2023-04-01T01:59:08;99202.88;;;9.43;86.71
75420;BME280;63998;52.488;13.428;2023-04-01T02:01:41;99201.22;;;9.39;86.63
75420;BME280;63998;52.488;13.428;2023-04-01T02:04:07;99206.41;;;9.39;86.47
75420;BME280;63998;52.488;13.428;2023-04-01T02:06:37;99206.28;;;9.45;86.34
75420;BME280;63998;52.488;13.428;2023-04-01T02:09:06;99213.00;;;9.55;86.49
75420;BME280;63998;52.488;13.428;2023-04-01T02:11:49;99209.53;;;9.56;86.57
75420;BME280;63998;52.488;13.428;2023-04-01T02:14:23;99207.72;;;9.61;86.08
75420;BME280;63998;52.488;13.428;2023-04-01T02:16:57;99205.88;;;9.66;86.07
75420;BME280;63998;52.488;13.428;2023-04-01T02:19:27;99200.53;;;9.76;86.41
75420;BME280;63998;52.488;13.428;2023-04-01T02:22:00;99204.59;;;9.89;85.35
75420;BME280;63998;52.488;13.428;2023-04-01T02:24:30;99201.91;;;9.92;85.29
75420;BME280;63998;52.488;13.428;2023-04-01T02:26:56;99208.72;;;9.99;84.88
75420;BME280;63998;52.488;13.428;2023-04-01T02:29:24;99200.75;;;10.06;84.29
75420;BME280;63998;52.488;13.428;2023-04-01T02:31:53;99198.00;;;10.14;84.49
75420;BME280;63998;52.488;13.428;2023-04-01T02:34:21;99208.53;;;10.08;83.40
75420;BME280;63998;52.488;13.428;2023-04-01T02:36:48;99206.22;;;9.93;83.19
75420;BME280;63998;52.488;13.428;2023-04-01T02:39:15;99209.88;;;9.84;83.63
75420;BME280;63998;52.488;13.428;2023-04-01T02:41:42;99209.13;;;9.78;83.79
75420;BME280;63998;52.488;13.428;2023-04-01T02:44:09;99215.25;;;9.73;84.47
75420;BME280;63998;52.488;13.428;2023-04-01T02:46:35;99220.44;;;9.73;84.58
75420;BME280;63998;52.488;13.428;2023-04-01T02:49:04;99222.25;;;9.70;84.18
75420;BME280;63998;52.488;13.428;2023-04-01T02:51:33;99228.03;;;9.83;84.81
75420;BME280;63998;52.488;13.428;2023-04-01T02:54:01;99229.72;;;9.87;84.67
75420;BME280;63998;52.488;13.428;2023-04-01T02:56:27;99229.47;;;9.99;85.19
75420;BME280;63998;52.488;13.428;2023-04-01T02:58:53;99230.16;;;10.07;84.63
75420;BME280;63998;52.488;13.428;2023-04-01T03:01:21;99223.16;;;10.12;84.41
75420;BME280;63998;52.488;13.428;2023-04-01T03:03:47;99236.16;;;10.09;84.17
75420;BME280;63998;52.488;13.428;2023-04-01T03:06:14;99224.84;;;10.13;83.36
75420;BME280;63998;52.488;13.428;2023-04-01T03:08:40;99229.13;;;10.14;83.96
75420;BME280;63998;52.488;13.428;2023-04-01T03:11:10;99234.25;;;10.20;83.10
75420;BME280;63998;52.488;13.428;2023-04-01T03:13:36;99231.69;;;10.16;82.25
75420;BME280;63998;52.488;13.428;2023-04-01T03:16:01;99224.75;;;10.19;83.23
75420;BME280;63998;52.488;13.428;2023-04-01T03:18:26;99223.81;;;10.23;82.44
75420;BME280;63998;52.488;13.428;2023-04-01T03:20:52;99230.69;;;10.24;82.98
75420;BME280;63998;52.488;13.428;2023-04-01T03:23:19;99228.31;;;10.14;82.11
75420;BME280;63998;52.488;13.428;2023-04-01T03:25:51;99236.41;;;9.97;81.79
75420;BME280;63998;52.488;13.428;2023-04-01T03:28:16;99240.09;;;9.87;82.46
75420;BME280;63998;52.488;13.428;2023-04-01T03:30:41;99245.34;;;9.82;82.99
75420;BME280;63998;52.488;13.428;2023-04-01T03:33:07;99234.81;;;9.90;82.90
75420;BME280;63998;52.488;13.428;2023-04-01T03:35:34;99239.88;;;9.96;83.04
75420;BME280;63998;52.488;13.428;2023-04-01T03:38:04;99240.00;;;9.90;82.87
75420;BME280;63998;52.488;13.428;2023-04-01T03:40:30;99240.09;;;9.87;82.50
75420;BME280;63998;52.488;13.428;2023-04-01T03:42:55;99246.84;;;9.94;82.67
75420;BME280;63998;52.488;13.428;2023-04-01T03:45:21;99250.31;;;9.93;82.75
75420;BME280;63998;52.488;13.428;2023-04-01T03:47:46;99251.97;;;9.97;82.68
75420;BME280;63998;52.488;13.428;2023-04-01T03:50:14;99250.22;;;9.99;83.35
75420;BME280;63998;52.488;13.428;2023-04-01T03:52:41;99258.88;;;9.98;82.68
75420;BME280;63998;52.488;13.428;2023-04-01T03:55:07;99260.69;;;9.93;82.70
75420;BME280;63998;52.488;13.428;2023-04-01T03:57:32;99257.41;;;9.85;82.43
75420;BME280;63998;52.488;13.428;2023-04-01T03:59:58;99266.13;;;9.81;82.45
75420;BME280;63998;52.488;13.428;2023-04-01T04:02:23;99263.47;;;9.84;82.78
75420;BME280;63998;52.488;13.428;2023-04-01T04:04:49;99268.63;;;9.85;83.27
75420;BME280;63998;52.488;13.428;2023-04-01T04:07:14;99272.22;;;9.78;83.18
75420;BME280;63998;52.488;13.428;2023-04-01T04:09:39;99269.66;;;9.77;82.84
75420;BME280;63998;52.488;13.428;2023-04-01T04:12:10;99271.34;;;9.78;83.33
75420;BME280;63998;52.488;13.428;2023-04-01T04:14:37;99269.53;;;9.83;83.25
75420;BME280;63998;52.488;13.428;2023-04-01T04:17:05;99271.06;;;9.93;83.52
75420;BME280;63998;52.488;13.428;2023-04-01T04:19:33;99278.19;;;9.82;83.41
75420;BME280;63998;52.488;13.428;2023-04-01T04:21:59;99275.78;;;9.72;83.82
75420;BME280;63998;52.488;13.428;2023-04-01T04:24:26;99278.25;;;9.79;83.34
75420;BME280;63998;52.488;13.428;2023-04-01T04:26:54;99285.16;;;9.80;83.81
75420;BME280;63998;52.488;13.428;2023-04-01T04:29:22;99279.97;;;9.80;84.38
75420;BME280;63998;52.488;13.428;2023-04-01T04:31:47;99281.66;;;9.81;83.82
75420;BME280;63998;52.488;13.428;2023-04-01T04:34:13;99279.97;;;9.80;83.56
75420;BME280;63998;52.488;13.428;2023-04-01T04:36:38;99281.72;;;9.78;83.93
75420;BME280;63998;52.488;13.428;2023-04-01T04:39:03;99295.59;;;9.77;83.74
75420;BME280;63998;52.488;13.428;2023-04-01T04:41:29;99288.69;;;9.76;83.62
75420;BME280;63998;52.488;13.428;2023-04-01T04:43:55;99295.66;;;9.73;84.14
75420;BME280;63998;52.488;13.428;2023-04-01T04:46:21;99292.25;;;9.68;84.48
75420;BME280;63998;52.488;13.428;2023-04-01T04:48:49;99299.13;;;9.72;84.26
75420;BME280;63998;52.488;13.428;2023-04-01T04:51:18;99293.81;;;9.79;84.53
75420;BME280;63998;52.488;13.428;2023-04-01T04:53:44;99290.22;;;9.86;84.50
75420;BME280;63998;52.488;13.428;2023-04-01T04:56:10;99298.00;;;9.86;84.50
75420;BME280;63998;52.488;13.428;2023-04-01T04:58:36;99305.81;;;9.84;84.39
75420;BME280;63998;52.488;13.428;2023-04-01T05:01:12;99291.81;;;9.93;84.36
75420;BME280;63998;52.488;13.428;2023-04-01T05:03:38;99297.84;;;9.95;84.38
75420;BME280;63998;52.488;13.428;2023-04-01T05:06:04;99295.84;;;10.09;84.48
75420;BME280;63998;52.488;13.428;2023-04-01T05:08:35;99298.63;;;10.00;83.70
75420;BME280;63998;52.488;13.428;2023-04-01T05:11:01;99303.63;;;10.09;84.15
75420;BME280;63998;52.488;13.428;2023-04-01T05:13:27;99310.53;;;10.10;84.39
75420;BME280;63998;52.488;13.428;2023-04-01T05:15:55;99303.63;;;10.09;83.78
75420;BME280;63998;52.488;13.428;2023-04-01T05:18:21;99312.47;;;9.99;83.76
75420;BME280;63998;52.488;13.428;2023-04-01T05:20:51;99303.72;;;10.03;84.06
75420;BME280;63998;52.488;13.428;2023-04-01T05:23:19;99310.72;;;10.01;83.95
75420;BME280;63998;52.488;13.428;2023-04-01T05:25:49;99307.38;;;9.93;84.30
75420;BME280;63998;52.488;13.428;2023-04-01T05:28:18;99310.72;;;10.01;83.95
75420;BME280;63998;52.488;13.428;2023-04-01T05:30:44;99316.59;;;10.09;84.31
75420;BME280;63998;52.488;13.428;2023-04-01T05:33:12;99319.91;;;10.16;84.89
75420;BME280;63998;52.488;13.428;2023-04-01T05:35:41;99317.28;;;10.20;84.67
75420;BME280;63998;52.488;13.428;2023-04-01T05:38:09;99319.94;;;10.14;83.72
75420;BME280;63998;52.488;13.428;2023-04-01T05:40:34;99319.03;;;10.18;83.76
75420;BME280;63998;52.488;13.428;2023-04-01T05:43:00;99316.50;;;10.14;83.71
75420;BME280;63998;52.488;13.428;2023-04-01T05:45:26;99325.94;;;10.19;84.01
75420;BME280;63998;52.488;13.428;2023-04-01T05:47:52;99329.44;;;10.15;84.23
75420;BME280;63998;52.488;13.428;2023-04-01T05:50:17;99324.44;;;10.06;83.34
75420;BME280;63998;52.488;13.428;2023-04-01T05:52:43;99330.44;;;10.08;83.84
75420;BME280;63998;52.488;13.428;2023-04-01T05:55:13;99326.97;;;10.09;84.39
75420;BME280;63998;52.488;13.428;2023-04-01T05:57:38;99336.56;;;10.04;83.90
75420;BME280;63998;52.488;13.428;2023-04-01T06:00:04;99339.88;;;10.12;84.38
75420;BME280;63998;52.488;13.428;2023-04-01T06:02:32;99345.31;;;10.00;83.98
75420;BME280;63998;52.488;13.428;2023-04-01T06:05:16;99347.81;;;10.03;84.63
75420;BME280;63998;52.488;13.428;2023-04-01T06:07:45;99343.16;;;10.23;84.73
75420;BME280;63998;52.488;13.428;2023-04-01T06:10:20;99346.72;;;10.16;84.47
75420;BME280;63998;52.488;13.428;2023-04-01T06:13:10;99343.25;;;10.17;84.20
75420;BME280;63998;52.488;13.428;2023-04-01T06:15:53;99350.00;;;10.27;84.51
75420;BME280;63998;52.488;13.428;2023-04-01T06:35:34;99373.25;;;9.83;85.37
75420;BME280;63998;52.488;13.428;2023-04-01T06:48:41;99376.13;;;10.18;85.39
75420;BME280;63998;52.488;13.428;2023-04-01T06:51:39;99379.78;;;10.05;84.93
75420;BME280;63998;52.488;13.428;2023-04-01T06:54:12;99377.84;;;10.19;85.02
75420;BME280;63998;52.488;13.428;2023-04-01T06:56:41;99377.13;;;10.09;85.15
75420;BME280;63998;52.488;13.428;2023-04-01T06:59:19;99376.03;;;10.24;85.05
75420;BME280;63998;52.488;13.428;2023-04-01T07:01:50;99381.44;;;10.09;85.19
75420;BME280;63998;52.488;13.428;2023-04-01T07:04:24;99386.41;;;10.24;85.27
75420;BME280;63998;52.488;13.428;2023-04-01T07:07:00;99383.72;;;10.27;85.10
75420;BME280;63998;52.488;13.428;2023-04-01T07:09:37;99394.38;;;10.12;84.41
75420;BME280;63998;52.488;13.428;2023-04-01T07:15:19;99390.91;;;10.13;84.75
75420;BME280;63998;52.488;13.428;2023-04-01T07:17:47;99387.97;;;10.33;85.08
75420;BME280;63998;52.488;13.428;2023-04-01T07:20:25;99391.22;;;10.42;85.04
75420;BME280;63998;52.488;13.428;2023-04-01T07:22:58;99387.69;;;10.47;84.45
75420;BME280;63998;52.488;13.428;2023-04-01T07:25:29;99393.63;;;10.53;83.68
75420;BME280;63998;52.488;13.428;2023-04-01T07:28:03;99383.25;;;10.52;83.05
75420;BME280;63998;52.488;13.428;2023-04-01T07:30:44;99399.44;;;10.64;83.51
75420;BME280;63998;52.488;13.428;2023-04-01T07:33:20;99398.59;;;10.64;82.70
75420;BME280;63998;52.488;13.428;2023-04-01T07:41:17;99398.94;;;10.89;82.05
75420;BME280;63998;52.488;13.428;2023-04-01T07:44:13;99401.25;;;11.02;81.74
75420;BME280;63998;52.488;13.428;2023-04-01T08:05:22;99418.63;;;11.39;80.68
75420;BME280;63998;52.488;13.428;2023-04-01T08:16:02;99418.38;;;11.88;79.00
75420;BME280;63998;52.488;13.428;2023-04-01T08:21:32;99417.00;;;12.09;78.43
75420;BME280;63998;52.488;13.428;2023-04-01T08:24:10;99414.22;;;12.15;78.07
75420;BME280;63998;52.488;13.428;2023-04-01T08:26:42;99422.72;;;12.23;77.29
75420;BME280;63998;52.488;13.428;2023-04-01T08:29:15;99428.50;;;12.34;77.73
75420;BME280;63998;52.488;13.428;2023-04-01T08:31:51;99430.03;;;12.41;77.41
75420;BME280;63998;52.488;13.428;2023-04-01T08:34:29;99434.22;;;12.47;78.15
75420;BME280;63998;52.488;13.428;2023-04-01T08:37:01;99436.16;;;12.39;77.08
75420;BME280;63998;52.488;13.428;2023-04-01T08:39:34;99448.69;;;12.24;76.53
75420;BME280;63998;52.488;13.428;2023-04-01T08:52:41;99441.81;;;12.22;76.01
75420;BME280;63998;52.488;13.428;2023-04-01T08:55:34;99446.13;;;12.23;75.15
75420;BME280;63998;52.488;13.428;2023-04-01T08:58:21;99449.53;;;12.25;75.50
75420;BME280;63998;52.488;13.428;2023-04-01T09:01:23;99448.59;;;12.28;75.33
75420;BME280;63998;52.488;13.428;2023-04-01T09:04:02;99456.56;;;12.23;74.73
75420;BME280;63998;52.488;13.428;2023-04-01T09:07:00;99453.25;;;12.15;74.15
75420;BME280;63998;52.488;13.428;2023-04-01T09:17:41;99464.06;;;12.00;73.24
75420;BME280;63998;52.488;13.428;2023-04-01T09:20:35;99475.28;;;12.02;73.57
75420;BME280;63998;52.488;13.428;2023-04-01T09:34:33;99497.63;;;11.73;74.50
75420;BME280;63998;52.488;13.428;2023-04-01T09:37:06;99502.94;;;11.67;74.94
75420;BME280;63998;52.488;13.428;2023-04-01T09:46:11;99509.88;;;11.68;74.33
75420;BME280;63998;52.488;13.428;2023-04-01T09:56:57;99521.41;;;11.97;75.32
75420;BME280;63998;52.488;13.428;2023-04-01T10:03:13;99528.38;;;11.95;73.95
75420;BME280;63998;52.488;13.428;2023-04-01T10:19:49;99542.41;;;11.87;75.02
75420;BME280;63998;52.488;13.428;2023-04-01T10:30:44;99540.13;;;11.72;75.11
75420;BME280;63998;52.488;13.428;2023-04-01T10:36:48;99544.63;;;11.64;75.26
75420;BME280;63998;52.488;13.428;2023-04-01T10:47:57;99558.72;;;11.54;74.78
75420;BME280;63998;52.488;13.428;2023-04-01T10:51:00;99558.78;;;11.51;74.85
75420;BME280;63998;52.488;13.428;2023-04-01T10:53:47;99555.44;;;11.46;75.21
75420;BME280;63998;52.488;13.428;2023-04-01T10:59:01;99556.91;;;11.59;76.37
75420;BME280;63998;52.488;13.428;2023-04-01T11:18:57;99580.56;;;11.47;74.68
75420;BME280;63998;52.488;13.428;2023-04-01T11:21:59;99575.56;;;11.36;74.39
75420;BME280;63998;52.488;13.428;2023-04-01T11:24:46;99586.88;;;11.34;75.15
75420;BME280;63998;52.488;13.428;2023-04-01T11:34:05;99589.38;;;11.38;73.71
75420;BME280;63998;52.488;13.428;2023-04-01T11:38:37;99602.25;;;11.44;74.75
75420;BME280;63998;52.488;13.428;2023-04-01T11:49:33;99616.47;;;11.27;73.74
75420;BME280;63998;52.488;13.428;2023-04-01T11:58:06;99636.31;;;11.31;74.93
75420;BME280;63998;52.488;13.428;2023-04-01T12:12:18;99644.41;;;11.15;74.26
75420;BME280;63998;52.488;13.428;2023-04-01T12:17:39;99653.31;;;11.01;73.52
75420;BME280;63998;52.488;13.428;2023-04-01T12:25:05;99654.38;;;10.89;74.34
75420;BME280;63998;52.488;13.428;2023-04-01T12:33:05;99672.28;;;11.07;74.90
75420;BME280;63998;52.488;13.428;2023-04-01T12:41:36;99663.84;;;10.93;74.12
75420;BME280;63998;52.488;13.428;2023-04-01T12:53:24;99688.84;;;11.00;74.59
75420;BME280;63998;52.488;13.428;2023-04-01T12:55:54;99697.75;;;10.86;74.14
75420;BME280;63998;52.488;13.428;2023-04-01T13:17:39;99712.19;;;10.48;73.59
75420;BME280;63998;52.488;13.428;2023-04-01T13:26:27;99723.63;;;10.33;73.24
75420;BME280;63998;52.488;13.428;2023-04-01T13:31:50;99728.72;;;10.39;74.82
75420;BME280;63998;52.488;13.428;2023-04-01T13:37:31;99738.19;;;10.45;73.44
75420;BME280;63998;52.488;13.428;2023-04-01T13:40:21;99742.47;;;10.48;74.28
75420;BME280;63998;52.488;13.428;2023-04-01T13:43:04;99744.13;;;10.52;73.76
75420;BME280;63998;52.488;13.428;2023-04-01T13:45:46;99740.63;;;10.56;73.63
75420;BME280;63998;52.488;13.428;2023-04-01T13:54:34;99742.47;;;10.48;73.34
75420;BME280;63998;52.488;13.428;2023-04-01T13:57:21;99745.91;;;10.50;73.33
75420;BME280;63998;52.488;13.428;2023-04-01T14:10:40;99771.41;;;10.16;73.01
75420;BME280;63998;52.488;13.428;2023-04-01T14:22:33;99783.50;;;10.17;72.92
75420;BME280;63998;52.488;13.428;2023-04-01T14:27:55;99799.94;;;10.14;73.92
75420;BME280;63998;52.488;13.428;2023-04-01T14:30:59;99805.13;;;10.14;73.15
75420;BME280;63998;52.488;13.428;2023-04-01T14:36:55;99814.75;;;10.07;72.35
75420;BME280;63998;52.488;13.428;2023-04-01T14:39:46;99811.31;;;10.04;73.09
75420;BME280;63998;52.488;13.428;2023-04-01T14:48:27;99817.47;;;9.94;72.26
75420;BME280;63998;52.488;13.428;2023-04-01T14:51:03;99825.22;;;9.98;72.76
75420;BME280;63998;52.488;13.428;2023-04-01T14:53:36;99827.00;;;9.93;73.21
75420;BME280;63998;52.488;13.428;2023-04-01T14:56:04;99826.13;;;9.93;73.83
75420;BME280;63998;52.488;13.428;2023-04-01T14:58:47;99833.19;;;9.79;73.52
75420;BME280;63998;52.488;13.428;2023-04-01T15:01:34;99842.66;;;9.86;74.01
75420;BME280;63998;52.488;13.428;2023-04-01T15:09:45;99836.66;;;9.78;73.58
75420;BME280;63998;52.488;13.428;2023-04-01T15:31:40;99868.97;;;9.39;72.55
75420;BME280;63998;52.488;13.428;2023-04-01T15:47:45;99899.25;;;9.30;73.66
75420;BME280;63998;52.488;13.428;2023-04-01T15:50:28;99902.78;;;9.16;73.67
75420;BME280;63998;52.488;13.428;2023-04-01T16:06:52;99920.22;;;8.89;72.78
75420;BME280;63998;52.488;13.428;2023-04-01T16:12:18;99918.38;;;9.10;75.09
75420;BME280;63998;52.488;13.428;2023-04-01T16:23:37;99940.94;;;8.89;73.31
75420;BME280;63998;52.488;13.428;2023-04-01T16:26:22;99956.47;;;8.89;73.80
75420;BME280;63998;52.488;13.428;2023-04-01T16:28:58;99962.56;;;8.73;73.09
75420;BME280;63998;52.488;13.428;2023-04-01T16:31:50;99972.06;;;8.74;73.52
75420;BME280;63998;52.488;13.428;2023-04-01T16:34:38;99970.34;;;8.70;73.78
75420;BME280;63998;52.488;13.428;2023-04-01T16:37:20;99972.06;;;8.68;74.34
75420;BME280;63998;52.488;13.428;2023-04-01T16:47:47;99990.25;;;8.50;72.88
75420;BME280;63998;52.488;13.428;2023-04-01T16:50:21;99996.28;;;8.52;73.36
75420;BME280;63998;52.488;13.428;2023-04-01T16:55:19;100003.16;;;8.28;72.86
75420;BME280;63998;52.488;13.428;2023-04-01T16:57:52;100003.16;;;8.16;72.85
75420;BME280;63998;52.488;13.428;2023-04-01T17:03:11;100029.91;;;8.09;74.34
75420;BME280;63998;52.488;13.428;2023-04-01T17:08:57;100029.03;;;8.07;73.96
75420;BME280;63998;52.488;13.428;2023-04-01T17:11:39;100034.22;;;8.19;74.99
75420;BME280;63998;52.488;13.428;2023-04-01T17:17:20;100046.28;;;8.17;74.12
75420;BME280;63998;52.488;13.428;2023-04-01T17:27:52;100068.59;;;7.67;73.90
75420;BME280;63998;52.488;13.428;2023-04-01T17:36:15;100080.69;;;7.80;74.82
75420;BME280;63998;52.488;13.428;2023-04-01T17:52:06;100114.22;;;7.57;74.21
75420;BME280;63998;52.488;13.428;2023-04-01T17:57:29;100120.19;;;7.39;74.06
75420;BME280;63998;52.488;13.428;2023-04-01T18:00:03;100126.22;;;7.40;74.54
75420;BME280;63998;52.488;13.428;2023-04-01T18:02:56;100121.88;;;7.28;73.66
75420;BME280;63998;52.488;13.428;2023-04-01T18:05:37;100132.19;;;7.28;74.28
75420;BME280;63998;52.488;13.428;2023-04-01T18:14:07;100152.84;;;7.25;75.09
75420;BME280;63998;52.488;13.428;2023-04-01T18:16:33;100158.00;;;7.25;74.27
75420;BME280;63998;52.488;13.428;2023-04-01T18:24:24;100177.75;;;7.20;75.54
75420;BME280;63998;52.488;13.428;2023-04-01T18:27:03;100177.84;;;7.28;76.31
75420;BME280;63998;52.488;13.428;2023-04-01T18:29:34;100180.44;;;7.29;75.92
75420;BME280;63998;52.488;13.428;2023-04-01T18:38:15;100202.72;;;7.15;74.47
75420;BME280;63998;52.488;13.428;2023-04-01T18:40:51;100204.34;;;7.05;74.13
75420;BME280;63998;52.488;13.428;2023-04-01T18:43:34;100213.00;;;7.12;74.68
75420;BME280;63998;52.488;13.428;2023-04-01T18:51:16;100234.41;;;6.97;74.69
75420;BME280;63998;52.488;13.428;2023-04-01T18:56:45;100236.22;;;7.07;74.60
75420;BME280;63998;52.488;13.428;2023-04-01T19:07:43;100254.38;;;7.15;76.05
75420;BME280;63998;52.488;13.428;2023-04-01T19:15:40;100258.56;;;7.01;74.83
75420;BME280;63998;52.488;13.428;2023-04-01T19:18:35;100269.72;;;7.00;74.39
75420;BME280;63998;52.488;13.428;2023-04-01T19:21:26;100269.66;;;6.94;73.86
75420;BME280;63998;52.488;13.428;2023-04-01T19:24:34;100267.06;;;6.89;74.33
75420;BME280;63998;52.488;13.428;2023-04-01T19:46:16;100314.19;;;6.71;75.72
75420;BME280;63998;52.488;13.428;2023-04-01T19:49:15;100315.06;;;6.72;75.46
75420;BME280;63998;52.488;13.428;2023-04-01T20:00:19;100329.50;;;6.55;76.58
75420;BME280;63998;52.488;13.428;2023-04-01T20:08:42;100341.50;;;6.51;75.71
75420;BME280;63998;52.488;13.428;2023-04-01T20:17:09;100355.19;;;6.47;75.80
75420;BME280;63998;52.488;13.428;2023-04-01T20:28:19;100398.13;;;6.40;74.63
75420;BME280;63998;52.488;13.428;2023-04-01T20:44:43;100411.53;;;6.17;74.85
75420;BME280;63998;52.488;13.428;2023-04-01T21:01:20;100438.91;;;6.08;75.42
75420;BME280;63998;52.488;13.428;2023-04-01T21:10:41;100446.63;;;6.08;74.80
75420;BME280;63998;52.488;13.428;2023-04-01T21:26:19;100476.66;;;6.03;73.92
75420;BME280;63998;52.488;13.428;2023-04-01T21:44:34;100503.53;;;5.68;73.15
75420;BME280;63998;52.488;13.428;2023-04-01T22:06:24;100530.84;;;5.60;71.26
75420;BME280;63998;52.488;13.428;2023-04-01T22:09:11;100542.81;;;5.58;71.94
75420;BME280;63998;52.488;13.428;2023-04-01T22:14:47;100544.38;;;5.50;71.77
75420;BME280;63998;52.488;13.428;2023-04-01T22:20:14;100563.31;;;5.52;71.63
75420;BME280;63998;52.488;13.428;2023-04-01T22:25:15;100568.56;;;5.58;71.74
75420;BME280;63998;52.488;13.428;2023-04-01T22:27:49;100572.84;;;5.56;71.42
75420;BME280;63998;52.488;13.428;2023-04-01T22:30:26;100572.84;;;5.57;71.93
75420;BME280;63998;52.488;13.428;2023-04-01T22:33:02;100572.88;;;5.59;71.64
75420;BME280;63998;52.488;13.428;2023-04-01T22:41:19;100585.53;;;5.47;71.25
75420;BME280;63998;52.488;13.428;2023-04-01T22:43:54;100589.09;;;5.52;70.69
75420;BME280;63998;52.488;13.428;2023-04-01T22:49:11;100595.84;;;5.47;70.35
75420;BME280;63998;52.488;13.428;2023-04-01T22:51:51;100597.56;;;5.48;71.54
75420;BME280;63998;52.488;13.428;2023-04-01T22:54:39;100604.22;;;5.36;71.17
75420;BME280;63998;52.488;13.428;2023-04-01T22:57:35;100596.44;;;5.35;70.46
75420;BME280;63998;52.488;13.428;2023-04-01T23:00:12;100611.09;;;5.37;71.27
75420;BME280;63998;52.488;13.428;2023-04-01T23:02:45;100607.44;;;5.26;69.88
75420;BME280;63998;52.488;13.428;2023-04-01T23:05:14;100619.47;;;5.27;70.16
75420;BME280;63998;52.488;13.428;2023-04-01T23:08:21;100616.00;;;5.25;71.52
75420;BME280;63998;52.488;13.428;2023-04-01T23:11:03;100617.81;;;5.29;71.23
75420;BME280;63998;52.488;13.428;2023-04-01T23:16:01;100630.03;;;5.39;71.44
75420;BME280;63998;52.488;13.428;2023-04-01T23:23:53;100638.69;;;5.41;71.03
75420;BME280;63998;52.488;13.428;2023-04-01T23:26:35;100638.72;;;5.45;69.80
75420;BME280;63998;52.488;13.428;2023-04-01T23:29:04;100641.19;;;5.38;69.57
75420;BME280;63998;52.488;13.428;2023-04-01T23:31:38;100645.22;;;5.27;69.90
75420;BME280;63998;52.488;13.428;2023-04-01T23:36:41;100650.38;;;5.27;69.72
75420;BME280;63998;52.488;13.428;2023-04-01T23:40:02;100658.78;;;5.20;69.45
75420;BME280;63998;52.488;13.428;2023-04-01T23:45:05;100670.06;;;5.25;70.14
75420;BME280;63998;52.488;13.428;2023-04-01T23:47:41;100674.78;;;5.05;68.28
75420;BME280;63998;52.488;13.428;2023-04-01T23:50:12;100674.13;;;5.14;69.22
75420;BME280;63998;52.488;13.428;2023-04-01T23:52:43;100674.19;;;5.17;68.51
75420;BME280;63998;52.488;13.428;2023-04-01T23:58:21;100687.75;;;5.10;69.20
